createdAt,value
2018-11-28T00:00:30.388Z,16.80
2018-11-28T00:02:02.003Z,16.60
2018-11-28T00:03:33.530Z,16.90
2018-11-28T00:05:05.103Z,17.90
2018-11-28T00:06:36.674Z,15.40
2018-11-28T00:08:08.345Z,15.70
2018-11-28T00:09:39.818Z,17.90
2018-11-28T00:11:11.390Z,17.80
2018-11-28T00:12:42.963Z,17.30
2018-11-28T00:14:14.533Z,16.50
2018-11-28T00:15:46.105Z,14.40
2018-11-28T00:17:17.676Z,11.50
2018-11-28T00:18:49.259Z,12.10
2018-11-28T00:20:20.821Z,8.10
2018-11-28T00:21:52.398Z,9.50
2018-11-28T00:23:23.965Z,10.90
2018-11-28T00:24:55.539Z,10.60
2018-11-28T00:26:27.209Z,12.10
2018-11-28T00:27:58.681Z,9.70
2018-11-28T00:29:30.252Z,12.20
2018-11-28T00:31:01.824Z,13.00
2018-11-28T00:32:33.396Z,9.40
2018-11-28T00:34:04.968Z,11.40
2018-11-28T00:35:36.544Z,11.80
2018-11-28T00:37:08.112Z,12.80
2018-11-28T00:38:39.688Z,11.70
2018-11-28T00:40:11.257Z,10.20
2018-11-28T00:41:42.832Z,10.70
2018-11-28T00:43:14.404Z,9.00
2018-11-28T00:44:46.074Z,10.10
2018-11-28T00:46:17.545Z,10.80
2018-11-28T00:47:49.118Z,9.90
2018-11-28T00:49:20.693Z,10.10
2018-11-28T00:50:52.265Z,11.30
2018-11-28T00:52:23.835Z,9.90
2018-11-28T00:53:55.407Z,9.40
2018-11-28T00:55:26.981Z,9.70
2018-11-28T00:56:58.565Z,10.40
2018-11-28T00:58:30.125Z,10.30
2018-11-28T01:00:01.698Z,8.90
2018-11-28T01:01:33.269Z,8.30
2018-11-28T01:03:04.942Z,7.00
2018-11-28T01:04:37.016Z,9.20
2018-11-28T01:06:07.988Z,7.60
2018-11-28T01:07:39.560Z,7.30
2018-11-28T01:09:11.132Z,5.90
2018-11-28T01:10:42.706Z,6.00
2018-11-28T01:12:14.277Z,6.80
2018-11-28T01:13:45.849Z,6.70
2018-11-28T01:15:17.427Z,6.00
2018-11-28T01:16:48.994Z,7.00
2018-11-28T01:18:20.567Z,7.40
2018-11-28T01:19:52.140Z,7.00
2018-11-28T01:21:23.813Z,7.10
2018-11-28T01:22:55.285Z,7.90
2018-11-28T01:24:26.857Z,7.20
2018-11-28T01:25:58.429Z,8.00
2018-11-28T01:27:30.010Z,7.40
2018-11-28T01:29:01.575Z,8.00
2018-11-28T01:30:33.147Z,8.00
2018-11-28T01:32:04.719Z,7.60
2018-11-28T01:33:36.291Z,7.90
2018-11-28T01:35:07.864Z,7.60
2018-11-28T01:36:39.436Z,7.20
2018-11-28T01:38:11.009Z,8.10
2018-11-28T01:39:42.682Z,7.50
2018-11-28T01:41:14.154Z,7.70
2018-11-28T01:42:45.728Z,8.20
2018-11-28T01:44:17.299Z,7.20
2018-11-28T01:45:48.872Z,6.10
2018-11-28T01:47:20.444Z,7.00
2018-11-28T01:48:52.027Z,6.20
2018-11-28T01:50:23.596Z,4.40
2018-11-28T01:51:55.162Z,4.70
2018-11-28T01:53:26.735Z,4.50
2018-11-28T01:54:58.307Z,4.70
2018-11-28T01:56:29.880Z,4.80
2018-11-28T01:58:01.553Z,4.40
2018-11-28T01:59:33.024Z,4.90
2018-11-28T02:01:04.597Z,4.30
2018-11-28T02:02:36.178Z,4.30
2018-11-28T02:04:07.745Z,5.70
2018-11-28T02:05:39.315Z,4.60
2018-11-28T02:07:10.887Z,5.80
2018-11-28T02:08:42.459Z,5.60
2018-11-28T02:10:14.032Z,4.80
2018-11-28T02:11:45.604Z,4.30
2018-11-28T02:13:17.177Z,5.20
2018-11-28T02:14:48.793Z,8.30
2018-11-28T02:16:20.421Z,6.50
2018-11-28T02:17:51.893Z,6.50
2018-11-28T02:19:23.465Z,8.10
2018-11-28T02:20:55.038Z,12.20
2018-11-28T02:22:26.610Z,8.80
2018-11-28T02:23:58.182Z,10.00
2018-11-28T02:25:29.755Z,11.50
2018-11-28T02:27:01.327Z,11.90
2018-11-28T02:28:32.898Z,16.90
2018-11-28T02:30:04.475Z,18.00
2018-11-28T02:31:36.043Z,16.20
2018-11-28T02:33:07.616Z,20.70
2018-11-28T02:34:39.287Z,23.90
2018-11-28T02:36:10.760Z,24.00
2018-11-28T02:37:42.332Z,26.10
2018-11-28T02:39:13.917Z,27.20
2018-11-28T02:40:45.475Z,25.80
2018-11-28T02:42:17.055Z,25.20
2018-11-28T02:43:48.620Z,22.30
2018-11-28T02:45:20.190Z,27.20
2018-11-28T02:46:51.763Z,24.10
2018-11-28T02:48:23.335Z,24.00
2018-11-28T02:49:54.989Z,23.10
2018-11-28T02:51:26.482Z,25.10
2018-11-28T02:52:58.150Z,26.80
2018-11-28T02:54:29.621Z,25.10
2018-11-28T02:56:01.199Z,23.50
2018-11-28T02:57:32.765Z,23.90
2018-11-28T02:59:04.337Z,28.80
2018-11-28T03:00:40.498Z,29.30
2018-11-28T03:02:07.487Z,26.50
2018-11-28T03:03:39.053Z,27.80
2018-11-28T03:05:10.626Z,29.70
2018-11-28T03:06:42.197Z,31.40
2018-11-28T03:08:13.769Z,24.10
2018-11-28T03:09:45.341Z,24.40
2018-11-28T03:11:17.012Z,27.30
2018-11-28T03:12:48.488Z,27.50
2018-11-28T03:14:20.056Z,19.60
2018-11-28T03:15:51.628Z,19.00
2018-11-28T03:17:23.203Z,17.80
2018-11-28T03:18:54.771Z,20.70
2018-11-28T03:20:26.343Z,20.90
2018-11-28T03:21:57.914Z,15.50
2018-11-28T03:23:29.487Z,17.10
2018-11-28T03:25:01.060Z,16.30
2018-11-28T03:26:32.630Z,10.70
2018-11-28T03:28:04.201Z,12.70
2018-11-28T03:29:35.885Z,9.00
2018-11-28T03:31:07.348Z,8.10
2018-11-28T03:32:38.918Z,9.10
2018-11-28T03:34:10.488Z,7.30
2018-11-28T03:35:42.065Z,6.30
2018-11-28T03:37:13.636Z,5.50
2018-11-28T03:38:45.204Z,4.50
2018-11-28T03:40:16.776Z,6.80
2018-11-28T03:41:48.348Z,6.20
2018-11-28T03:43:19.925Z,7.30
2018-11-28T03:44:51.494Z,5.60
2018-11-28T03:46:23.069Z,7.20
2018-11-28T03:47:54.735Z,5.30
2018-11-28T03:49:26.216Z,6.20
2018-11-28T03:50:57.778Z,6.00
2018-11-28T03:52:29.352Z,4.60
2018-11-28T03:54:00.929Z,6.90
2018-11-28T03:55:32.494Z,6.90
2018-11-28T03:57:04.094Z,6.50
2018-11-28T03:58:35.638Z,6.70
2018-11-28T04:00:07.219Z,9.10
2018-11-28T04:01:38.781Z,7.20
2018-11-28T04:03:10.358Z,7.90
2018-11-28T04:04:42.058Z,6.30
2018-11-28T04:06:13.597Z,7.80
2018-11-28T04:07:45.069Z,7.20
2018-11-28T04:09:16.646Z,9.70
2018-11-28T04:10:48.212Z,7.90
2018-11-28T04:12:19.785Z,8.40
2018-11-28T04:13:51.356Z,7.20
2018-11-28T04:15:22.931Z,6.80
2018-11-28T04:16:54.499Z,5.40
2018-11-28T04:18:26.072Z,8.20
2018-11-28T04:19:57.643Z,5.40
2018-11-28T04:21:29.218Z,5.50
2018-11-28T04:23:00.787Z,5.30
2018-11-28T04:24:32.560Z,6.60
2018-11-28T04:26:03.931Z,6.30
2018-11-28T04:27:35.503Z,7.00
2018-11-28T04:29:07.075Z,6.90
2018-11-28T04:30:38.647Z,7.50
2018-11-28T04:32:10.219Z,7.70
2018-11-28T04:33:41.792Z,6.20
2018-11-28T04:35:13.364Z,5.70
2018-11-28T04:36:44.940Z,7.40
2018-11-28T04:38:16.508Z,7.60
2018-11-28T04:39:48.088Z,6.00
2018-11-28T04:41:19.654Z,5.90
2018-11-28T04:42:51.335Z,8.30
2018-11-28T04:44:22.797Z,8.50
2018-11-28T04:45:54.369Z,6.40
2018-11-28T04:47:25.942Z,9.10
2018-11-28T04:48:57.513Z,8.90
2018-11-28T04:50:29.084Z,8.50
2018-11-28T04:52:00.656Z,11.10
2018-11-28T04:53:32.228Z,8.20
2018-11-28T04:55:03.800Z,9.40
2018-11-28T04:56:35.372Z,9.00
2018-11-28T04:58:06.944Z,10.30
2018-11-28T04:59:38.564Z,9.10
2018-11-28T05:01:10.189Z,8.80
2018-11-28T05:02:41.660Z,10.00
2018-11-28T05:04:13.232Z,10.50
2018-11-28T05:05:44.804Z,10.10
2018-11-28T05:07:16.376Z,10.00
2018-11-28T05:08:47.949Z,8.30
2018-11-28T05:10:19.521Z,11.20
2018-11-28T05:11:51.093Z,12.30
2018-11-28T05:13:22.666Z,9.60
2018-11-28T05:14:54.236Z,9.30
2018-11-28T05:16:25.808Z,8.60
2018-11-28T05:17:57.380Z,7.70
2018-11-28T05:19:29.052Z,8.00
2018-11-28T05:21:00.525Z,8.80
2018-11-28T05:22:32.097Z,8.40
2018-11-28T05:24:03.668Z,8.50
2018-11-28T05:25:35.241Z,8.70
2018-11-28T05:27:06.812Z,8.30
2018-11-28T05:28:38.384Z,8.80
2018-11-28T05:30:09.955Z,8.80
2018-11-28T05:31:41.528Z,8.80
2018-11-28T05:33:13.100Z,8.10
2018-11-28T05:34:44.672Z,9.60
2018-11-28T05:36:16.244Z,10.10
2018-11-28T05:37:47.916Z,8.70
2018-11-28T05:39:19.387Z,7.40
2018-11-28T05:40:50.959Z,8.70
2018-11-28T05:42:22.532Z,8.50
2018-11-28T05:43:54.104Z,9.30
2018-11-28T05:45:25.675Z,7.70
2018-11-28T05:46:57.247Z,6.60
2018-11-28T05:48:28.819Z,6.50
2018-11-28T05:50:00.392Z,8.40
2018-11-28T05:51:31.963Z,8.60
2018-11-28T05:53:03.534Z,7.70
2018-11-28T05:54:35.107Z,9.50
2018-11-28T05:56:06.779Z,7.80
2018-11-28T05:57:38.253Z,7.00
2018-11-28T05:59:09.823Z,7.50
2018-11-28T06:00:41.395Z,8.90
2018-11-28T06:02:12.967Z,7.30
2018-11-28T06:03:44.539Z,6.40
2018-11-28T06:05:16.111Z,6.20
2018-11-28T06:06:47.683Z,5.90
2018-11-28T06:08:19.255Z,8.40
2018-11-28T06:09:50.830Z,6.80
2018-11-28T06:11:22.405Z,7.00
2018-11-28T06:12:53.971Z,7.20
2018-11-28T06:14:25.646Z,5.80
2018-11-28T06:15:57.115Z,8.40
2018-11-28T06:17:28.687Z,5.30
2018-11-28T06:19:00.261Z,5.30
2018-11-28T06:20:31.833Z,6.80
2018-11-28T06:22:03.403Z,5.10
2018-11-28T06:23:34.979Z,5.30
2018-11-28T06:25:06.548Z,6.10
2018-11-28T06:26:38.420Z,6.20
2018-11-28T06:28:09.692Z,6.70
2018-11-28T06:29:41.263Z,6.80
2018-11-28T06:31:12.839Z,6.40
2018-11-28T06:32:44.512Z,7.50
2018-11-28T06:34:15.980Z,6.70
2018-11-28T06:35:47.552Z,7.10
2018-11-28T06:37:19.124Z,7.30
2018-11-28T06:38:50.696Z,10.10
2018-11-28T06:40:24.272Z,8.40
2018-11-28T06:41:53.840Z,6.80
2018-11-28T06:43:25.412Z,8.60
2018-11-28T06:44:56.986Z,9.30
2018-11-28T06:46:28.557Z,7.90
2018-11-28T06:48:00.129Z,8.20
2018-11-28T06:49:31.701Z,9.80
2018-11-28T06:51:03.373Z,9.30
2018-11-28T06:52:34.844Z,9.70
2018-11-28T06:54:06.418Z,10.70
2018-11-28T06:55:37.988Z,10.30
2018-11-28T06:57:09.560Z,9.10
2018-11-28T06:58:41.132Z,9.40
2018-11-28T07:00:12.706Z,11.40
2018-11-28T07:01:44.275Z,10.90
2018-11-28T07:03:15.848Z,9.80
2018-11-28T07:04:47.979Z,10.90
2018-11-28T07:06:18.992Z,9.60
2018-11-28T07:07:50.566Z,10.30
2018-11-28T07:09:22.236Z,9.70
2018-11-28T07:10:53.708Z,9.90
2018-11-28T07:12:25.282Z,9.80
2018-11-28T07:13:56.854Z,12.50
2018-11-28T07:15:28.425Z,11.10
2018-11-28T07:16:59.996Z,9.40
2018-11-28T07:18:31.568Z,9.20
2018-11-28T07:20:03.141Z,9.50
2018-11-28T07:21:34.713Z,12.30
2018-11-28T07:23:06.285Z,9.90
2018-11-28T07:24:37.857Z,13.00
2018-11-28T07:26:09.432Z,10.40
2018-11-28T07:27:45.172Z,12.10
2018-11-28T07:29:12.579Z,11.40
2018-11-28T07:30:44.146Z,13.20
2018-11-28T07:32:15.718Z,13.20
2018-11-28T07:33:47.292Z,11.30
2018-11-28T07:35:18.862Z,11.00
2018-11-28T07:36:50.434Z,13.20
2018-11-28T07:38:22.006Z,13.60
2018-11-28T07:39:53.578Z,13.90
2018-11-28T07:41:25.151Z,13.80
2018-11-28T07:42:56.722Z,13.10
2018-11-28T07:44:28.295Z,15.20
2018-11-28T07:45:59.967Z,12.80
2018-11-28T07:47:31.451Z,11.90
2018-11-28T07:49:03.012Z,13.40
2018-11-28T07:50:34.583Z,11.70
2018-11-28T07:52:06.155Z,12.40
2018-11-28T07:53:37.730Z,12.00
2018-11-28T07:55:09.299Z,12.80
2018-11-28T07:56:40.872Z,12.10
2018-11-28T07:58:12.443Z,11.90
2018-11-28T07:59:44.028Z,8.60
2018-11-28T08:01:15.592Z,11.60
2018-11-28T08:02:47.162Z,10.20
2018-11-28T08:04:19.075Z,10.60
2018-11-28T08:05:50.303Z,9.10
2018-11-28T08:07:21.875Z,11.50
2018-11-28T08:08:53.464Z,11.00
2018-11-28T08:10:25.019Z,11.70
2018-11-28T08:11:56.627Z,12.00
2018-11-28T08:13:28.163Z,11.30
2018-11-28T08:14:59.739Z,17.10
2018-11-28T08:16:31.307Z,14.70
2018-11-28T08:18:02.939Z,14.30
2018-11-28T08:19:34.522Z,16.60
2018-11-28T08:21:06.023Z,13.80
2018-11-28T08:22:37.696Z,12.60
2018-11-28T08:24:09.168Z,14.20
2018-11-28T08:25:40.740Z,12.70
2018-11-28T08:27:12.312Z,12.40
2018-11-28T08:28:43.884Z,15.80
2018-11-28T08:30:15.455Z,14.20
2018-11-28T08:31:47.044Z,14.50
2018-11-28T08:33:18.603Z,11.10
2018-11-28T08:34:50.172Z,12.80
2018-11-28T08:36:21.744Z,13.20
2018-11-28T08:37:53.319Z,11.20
2018-11-28T08:39:24.891Z,10.40
2018-11-28T08:40:56.867Z,12.40
2018-11-28T08:42:28.032Z,12.20
2018-11-28T08:43:59.604Z,14.00
2018-11-28T08:45:31.177Z,10.90
2018-11-28T08:47:02.783Z,11.20
2018-11-28T08:48:34.352Z,12.40
2018-11-28T08:50:05.893Z,9.60
2018-11-28T08:51:37.499Z,12.30
2018-11-28T08:53:09.863Z,9.20
2018-11-28T08:54:41.370Z,9.30
2018-11-28T08:56:12.181Z,11.20
2018-11-28T08:59:15.431Z,9.50
2018-11-28T09:00:47.038Z,8.50
2018-11-28T09:02:18.622Z,11.40
2018-11-28T09:05:21.869Z,8.90
2018-11-28T09:06:53.191Z,8.60
2018-11-28T09:08:24.823Z,10.90
2018-11-28T09:09:57.184Z,7.80
2018-11-28T09:13:04.144Z,8.90
2018-11-28T09:14:32.085Z,10.00
2018-11-28T09:16:02.680Z,8.50
2018-11-28T09:19:06.637Z,9.30
2018-11-28T09:20:37.455Z,9.60
2018-11-28T09:22:08.910Z,9.10
2018-11-28T09:23:40.581Z,9.50
2018-11-28T09:25:12.291Z,9.60
2018-11-28T09:26:43.733Z,10.30
2018-11-28T09:28:15.307Z,11.10
2018-11-28T09:29:46.985Z,9.70
2018-11-28T09:31:18.389Z,10.30
2018-11-28T09:32:49.998Z,10.10
2018-11-28T09:34:21.514Z,13.60
2018-11-28T09:35:53.078Z,12.20
2018-11-28T09:37:24.752Z,11.30
2018-11-28T09:38:57.464Z,12.40
2018-11-28T09:40:27.782Z,11.80
2018-11-28T09:41:59.627Z,10.40
2018-11-28T09:43:31.130Z,12.20
2018-11-28T09:46:34.084Z,10.30
2018-11-28T09:49:37.335Z,11.20
2018-11-28T09:51:08.790Z,11.60
2018-11-28T09:52:40.368Z,12.70
2018-11-28T09:54:11.936Z,10.90
2018-11-28T09:55:43.898Z,12.30
2018-11-28T09:57:15.871Z,11.10
2018-11-28T09:58:46.788Z,10.90
2018-11-28T10:00:18.766Z,8.80
2018-11-28T10:01:51.928Z,9.40
2018-11-28T10:03:22.363Z,9.50
2018-11-28T10:04:53.459Z,10.00
2018-11-28T10:06:24.975Z,8.60
2018-11-28T10:07:57.084Z,11.90
2018-11-28T10:09:29.020Z,10.00
2018-11-28T10:10:59.771Z,8.20
2018-11-28T10:12:31.526Z,9.10
2018-11-28T10:14:05.471Z,7.10
2018-11-28T10:15:37.207Z,8.10
2018-11-28T10:17:07.086Z,6.20
2018-11-28T10:18:37.209Z,5.50
2018-11-28T10:20:08.828Z,6.50
2018-11-28T10:21:40.971Z,6.40
2018-11-28T10:23:12.434Z,5.60
2018-11-28T10:24:46.070Z,6.30
2018-11-28T10:26:16.338Z,5.50
2018-11-28T10:27:47.787Z,7.40
2018-11-28T10:29:18.173Z,6.60
2018-11-28T10:30:50.442Z,5.70
2018-11-28T10:32:23.016Z,6.60
2018-11-28T10:33:53.637Z,7.40
2018-11-28T10:35:26.372Z,7.30
2018-11-28T10:36:59.833Z,8.40
2018-11-28T10:38:29.720Z,7.60
2018-11-28T10:39:59.241Z,7.60
2018-11-28T10:41:30.828Z,7.30
2018-11-28T10:43:03.496Z,8.20
2018-11-28T10:44:34.071Z,6.50
2018-11-28T10:46:06.629Z,6.70
2018-11-28T10:47:38.044Z,7.30
2018-11-28T10:49:09.079Z,7.60
2018-11-28T10:50:41.355Z,8.70
2018-11-28T10:52:12.384Z,7.50
2018-11-28T10:53:45.278Z,8.30
2018-11-28T10:55:17.238Z,7.00
2018-11-28T10:56:46.487Z,6.80
2018-11-28T10:58:18.819Z,8.90
2018-11-28T10:59:52.556Z,7.80
2018-11-28T11:01:22.212Z,7.30
2018-11-28T11:02:54.860Z,8.30
2018-11-28T11:04:25.928Z,9.10
2018-11-28T11:05:56.446Z,11.80
2018-11-28T11:07:29.773Z,8.30
2018-11-28T11:08:59.420Z,9.10
2018-11-28T11:10:31.121Z,10.60
2018-11-28T11:12:02.938Z,10.90
2018-11-28T11:13:36.029Z,8.60
2018-11-28T11:15:08.184Z,10.00
2018-11-28T11:16:39.096Z,9.00
2018-11-28T11:18:11.268Z,10.40
2018-11-28T11:19:40.958Z,10.10
2018-11-28T11:21:12.977Z,9.90
2018-11-28T11:22:45.432Z,10.60
2018-11-28T11:24:18.049Z,9.70
2018-11-28T11:25:46.600Z,9.90
2018-11-28T11:27:20.473Z,11.60
2018-11-28T11:28:52.371Z,10.10
2018-11-28T11:30:21.469Z,9.60
2018-11-28T11:31:54.053Z,9.80
2018-11-28T11:33:26.652Z,10.80
2018-11-28T11:34:57.907Z,11.70
2018-11-28T11:36:28.246Z,12.40
2018-11-28T11:38:02.489Z,11.20
2018-11-28T11:39:33.325Z,12.40
2018-11-28T11:41:03.283Z,11.10
2018-11-28T11:42:35.031Z,10.10
2018-11-28T11:44:05.658Z,10.50
2018-11-28T11:45:37.719Z,9.70
2018-11-28T11:47:09.392Z,10.30
2018-11-28T11:48:41.766Z,19.30
2018-11-28T11:50:14.841Z,10.00
2018-11-28T11:51:43.758Z,11.00
2018-11-28T11:53:15.529Z,10.80
2018-11-28T11:54:46.686Z,9.50
2018-11-28T11:56:19.162Z,10.70
2018-11-28T11:57:49.987Z,12.40
2018-11-28T11:59:21.910Z,9.10
2018-11-28T12:00:53.965Z,9.60
2018-11-28T12:02:26.176Z,10.70
2018-11-28T12:03:56.388Z,9.30
2018-11-28T12:05:29.113Z,7.70
2018-11-28T12:07:01.048Z,7.70
2018-11-28T12:08:32.150Z,10.00
2018-11-28T12:10:08.805Z,10.80
2018-11-28T12:11:34.222Z,8.70
2018-11-28T12:13:07.247Z,10.20
2018-11-28T12:14:37.931Z,9.70
2018-11-28T12:16:08.881Z,9.00
2018-11-28T12:17:40.748Z,12.70
2018-11-28T12:19:12.476Z,9.50
2018-11-28T12:20:44.421Z,10.40
2018-11-28T12:23:46.930Z,12.70
2018-11-28T12:25:19.294Z,13.70
2018-11-28T12:26:51.387Z,13.90
2018-11-28T12:28:23.693Z,12.80
2018-11-28T12:29:53.343Z,12.50
2018-11-28T12:31:25.480Z,14.30
2018-11-28T12:32:57.035Z,13.30
2018-11-28T12:34:28.881Z,12.20
2018-11-28T12:36:00.130Z,12.50
2018-11-28T12:37:31.671Z,12.30
2018-11-28T12:39:03.642Z,12.50
2018-11-28T12:40:34.977Z,17.50
2018-11-28T12:42:06.087Z,11.80
2018-11-28T12:43:38.202Z,13.10
2018-11-28T12:45:09.629Z,13.80
2018-11-28T12:46:42.653Z,12.10
2018-11-28T12:48:12.057Z,11.80
2018-11-28T12:49:43.763Z,11.50
2018-11-28T12:51:17.196Z,13.60
2018-11-28T12:52:47.987Z,11.60
2018-11-28T12:54:18.797Z,13.10
2018-11-28T12:55:50.392Z,15.70
2018-11-28T12:57:22.532Z,10.90
2018-11-28T12:58:53.696Z,14.80
2018-11-28T13:00:24.926Z,11.40
2018-11-28T13:01:58.029Z,12.60
2018-11-28T13:03:28.892Z,13.10
2018-11-28T13:05:00.028Z,16.70
2018-11-28T13:06:31.151Z,11.20
2018-11-28T13:08:05.092Z,12.80
2018-11-28T13:09:34.892Z,12.50
2018-11-28T13:11:06.798Z,11.80
2018-11-28T13:12:39.441Z,16.00
2018-11-28T13:14:09.678Z,11.60
2018-11-28T13:15:40.549Z,12.30
2018-11-28T13:17:13.042Z,10.30
2018-11-28T13:18:44.089Z,10.30
2018-11-28T13:20:16.320Z,11.20
2018-11-28T13:21:49.630Z,12.30
2018-11-28T13:23:19.434Z,10.80
2018-11-28T13:24:50.374Z,9.70
2018-11-28T13:26:21.792Z,10.60
2018-11-28T13:27:54.992Z,13.10
2018-11-28T13:29:26.993Z,10.90
2018-11-28T13:30:57.125Z,10.90
2018-11-28T13:32:28.738Z,12.70
2018-11-28T13:33:59.973Z,10.20
2018-11-28T13:35:31.248Z,10.00
2018-11-28T13:37:03.386Z,12.00
2018-11-28T13:38:35.259Z,10.00
2018-11-28T13:40:06.872Z,10.70
2018-11-28T13:41:37.391Z,8.70
2018-11-28T13:43:09.095Z,7.80
2018-11-28T13:44:41.212Z,10.10
2018-11-28T13:46:12.613Z,10.50
2018-11-28T13:47:44.466Z,9.40
2018-11-28T13:49:15.330Z,9.60
2018-11-28T13:50:49.650Z,10.90
2018-11-28T13:52:20.410Z,8.60
2018-11-28T13:53:51.742Z,9.40
2018-11-28T13:55:39.767Z,9.30
2018-11-28T13:57:07.143Z,8.40
2018-11-28T13:58:25.544Z,7.90
2018-11-28T13:59:56.984Z,8.10
2018-11-28T14:01:28.218Z,8.80
2018-11-28T14:03:00.775Z,8.30
2018-11-28T14:04:32.262Z,9.10
2018-11-28T14:06:03.111Z,10.00
2018-11-28T14:07:34.439Z,8.60
2018-11-28T14:09:06.913Z,11.10
2018-11-28T14:10:38.205Z,8.30
2018-11-28T14:12:10.104Z,8.20
2018-11-28T14:13:41.734Z,7.70
2018-11-28T14:15:12.577Z,8.30
2018-11-28T14:16:46.169Z,7.70
2018-11-28T14:18:15.855Z,7.60
2018-11-28T14:19:48.142Z,7.80
2018-11-28T14:21:20.983Z,7.40
2018-11-28T14:22:54.259Z,6.80
2018-11-28T14:24:22.412Z,7.70
2018-11-28T14:25:54.593Z,8.20
2018-11-28T14:27:26.681Z,7.50
2018-11-28T14:28:58.235Z,8.80
2018-11-28T14:30:30.586Z,7.70
2018-11-28T14:32:00.498Z,7.60
2018-11-28T14:33:34.007Z,7.30
2018-11-28T14:35:06.710Z,8.10
2018-11-28T14:36:36.528Z,7.80
2018-11-28T14:38:06.174Z,8.20
2018-11-28T14:39:39.668Z,7.50
2018-11-28T14:41:12.252Z,7.50
2018-11-28T14:42:43.226Z,7.80
2018-11-28T14:44:12.835Z,8.70
2018-11-28T14:45:44.383Z,8.20
2018-11-28T14:47:16.445Z,7.70
2018-11-28T14:48:48.777Z,7.60
2018-11-28T14:50:20.181Z,7.40
2018-11-28T14:51:51.997Z,7.30
2018-11-28T14:53:23.009Z,6.90
2018-11-28T14:54:54.335Z,7.30
2018-11-28T14:56:26.903Z,6.80
2018-11-28T14:57:57.759Z,8.30
2018-11-28T14:59:29.391Z,7.30
2018-11-28T15:01:01.592Z,6.20
2018-11-28T15:02:31.921Z,6.90
2018-11-28T15:04:03.731Z,7.10
2018-11-28T15:05:35.609Z,7.10
2018-11-28T15:07:07.079Z,7.60
2018-11-28T15:08:38.080Z,7.60
2018-11-28T15:10:09.510Z,8.50
2018-11-28T15:11:41.089Z,8.30
2018-11-28T15:13:12.397Z,8.00
2018-11-28T15:14:43.965Z,6.50
2018-11-28T15:16:15.548Z,7.10
2018-11-28T15:17:47.664Z,7.60
2018-11-28T15:19:18.724Z,7.20
2018-11-28T15:22:21.897Z,7.00
2018-11-28T15:23:53.537Z,6.20
2018-11-28T15:25:25.457Z,6.80
2018-11-28T15:26:56.704Z,10.80
2018-11-28T15:28:28.407Z,13.10
2018-11-28T15:29:59.967Z,12.40
2018-11-28T15:31:31.739Z,13.20
2018-11-28T15:33:03.024Z,13.10
2018-11-28T15:34:34.618Z,13.30
2018-11-28T15:37:38.489Z,13.40
2018-11-28T15:39:09.476Z,13.70
2018-11-28T15:40:41.272Z,14.40
2018-11-28T15:42:12.560Z,14.90
2018-11-28T15:43:44.158Z,15.10
2018-11-28T15:45:16.022Z,13.90
2018-11-28T15:46:47.424Z,15.70
2018-11-28T15:48:19.214Z,14.80
2018-11-28T15:49:50.908Z,14.40
2018-11-28T15:51:22.085Z,14.80
2018-11-28T15:52:53.896Z,15.40
2018-11-28T15:54:25.264Z,14.90
2018-11-28T15:55:57.051Z,14.10
2018-11-28T15:57:28.437Z,14.60
2018-11-28T15:59:00.028Z,14.60
2018-11-28T16:00:31.614Z,14.90
2018-11-28T16:02:03.315Z,15.10
2018-11-28T16:03:34.993Z,13.90
2018-11-28T16:05:06.598Z,15.00
2018-11-28T16:06:38.041Z,15.00
2018-11-28T16:08:09.625Z,14.60
2018-11-28T16:09:41.216Z,14.90
2018-11-28T16:11:13.373Z,15.30
2018-11-28T16:12:45.458Z,16.00
2018-11-28T16:14:15.916Z,14.90
2018-11-28T16:15:47.564Z,15.80
2018-11-28T16:17:19.467Z,15.10
2018-11-28T16:21:14.686Z,15.40
2018-11-28T16:21:53.868Z,17.00
2018-11-28T16:23:25.537Z,15.80
2018-11-28T16:24:57.024Z,16.30
2018-11-28T16:26:28.598Z,15.70
2018-11-28T16:28:00.184Z,15.70
2018-11-28T16:29:31.985Z,15.50
2018-11-28T16:31:03.369Z,16.20
2018-11-28T16:32:34.981Z,17.50
2018-11-28T16:34:06.543Z,15.80
2018-11-28T16:35:38.658Z,15.90
2018-11-28T16:37:09.931Z,16.20
2018-11-28T16:38:41.305Z,16.30
2018-11-28T16:40:13.206Z,16.30
2018-11-28T16:41:44.575Z,17.10
2018-11-28T16:43:16.061Z,16.40
2018-11-28T16:44:47.654Z,16.20
2018-11-28T16:46:19.238Z,16.90
2018-11-28T16:47:51.124Z,18.60
2018-11-28T16:49:22.709Z,16.90
2018-11-28T16:50:57.027Z,17.40
2018-11-28T16:52:25.578Z,16.90
2018-11-28T16:53:57.174Z,17.20
2018-11-28T16:55:29.059Z,17.10
2018-11-28T16:57:00.641Z,17.00
2018-11-28T17:00:03.612Z,16.90
2018-11-28T17:01:35.097Z,17.80
2018-11-28T17:04:38.286Z,16.90
2018-11-28T17:07:41.440Z,16.60
2018-11-28T17:09:13.027Z,16.90
2018-11-28T17:10:44.816Z,16.00
2018-11-28T17:12:16.200Z,18.20
2018-11-28T17:15:19.480Z,15.00
2018-11-28T17:16:51.158Z,14.90
2018-11-28T17:18:22.541Z,14.40
2018-11-28T17:21:25.714Z,14.70
2018-11-28T17:24:28.884Z,14.90
2018-11-28T17:26:00.471Z,14.90
2018-11-28T17:27:32.372Z,14.30
2018-11-28T17:29:03.644Z,14.20
2018-11-28T17:30:35.431Z,13.70
2018-11-28T17:32:06.813Z,14.80
2018-11-28T17:33:39.228Z,14.10
2018-11-28T17:35:10.446Z,14.40
2018-11-28T17:36:41.569Z,14.00
2018-11-28T17:38:13.155Z,13.40
2018-11-28T17:39:44.742Z,13.60
2018-11-28T17:41:16.335Z,13.90
2018-11-28T17:42:47.911Z,13.80
2018-11-28T17:44:19.703Z,13.30
2018-11-28T17:45:51.083Z,12.90
2018-11-28T17:47:22.879Z,14.40
2018-11-28T17:48:54.311Z,13.80
2018-11-28T17:50:26.265Z,14.10
2018-11-28T17:51:57.545Z,14.90
2018-11-28T17:53:29.615Z,16.10
2018-11-28T17:59:35.348Z,15.60
2018-11-28T18:01:06.932Z,15.10
2018-11-28T18:04:10.098Z,17.60
2018-11-28T18:05:41.682Z,17.20
2018-11-28T18:07:13.794Z,17.10
2018-11-28T18:08:44.852Z,18.30
2018-11-28T18:10:16.437Z,15.00
2018-11-28T18:11:48.117Z,16.80
2018-11-28T18:13:19.597Z,16.90
2018-11-28T18:14:51.709Z,18.70
2018-11-28T18:16:22.762Z,15.30
2018-11-28T18:17:54.659Z,17.30
2018-11-28T18:19:25.935Z,16.90
2018-11-28T18:20:57.710Z,17.60
2018-11-28T18:22:29.102Z,17.40
2018-11-28T18:24:00.671Z,16.30
2018-11-28T18:25:32.324Z,15.50
2018-11-28T18:27:03.878Z,14.80
2018-11-28T18:30:07.100Z,15.60
2018-11-28T18:31:38.814Z,16.30
2018-11-28T18:33:10.365Z,16.60
2018-11-28T18:34:41.742Z,18.90
2018-11-28T18:36:13.631Z,17.20
2018-11-28T18:37:45.635Z,18.70
2018-11-28T18:39:16.487Z,19.70
2018-11-28T18:40:48.067Z,18.00
2018-11-28T18:42:19.656Z,18.90
2018-11-28T18:43:51.239Z,19.20
2018-11-28T18:45:22.806Z,20.00
2018-11-28T18:48:26.066Z,21.90
2018-11-28T18:49:57.543Z,23.90
2018-11-28T18:51:29.428Z,22.80
2018-11-28T18:54:32.433Z,22.90
2018-11-28T18:56:04.595Z,22.90
2018-11-28T18:57:35.989Z,22.80
2018-11-28T19:00:39.102Z,22.10
2018-11-28T19:02:10.174Z,22.00
2018-11-28T19:03:42.061Z,22.60
2018-11-28T19:05:14.061Z,22.00
2018-11-28T19:06:45.211Z,23.10
2018-11-28T19:08:16.885Z,23.20
2018-11-28T19:09:48.284Z,24.10
2018-11-28T19:14:23.011Z,21.60
2018-11-28T19:15:54.589Z,23.20
2018-11-28T19:17:25.955Z,21.70
2018-11-28T19:18:57.530Z,21.20
2018-11-28T19:20:29.109Z,20.60
2018-11-28T19:23:32.265Z,24.70
2018-11-28T19:25:03.838Z,23.00
2018-11-28T19:26:35.717Z,22.70
2018-11-28T19:28:07.195Z,25.30
2018-11-28T19:29:38.576Z,22.20
2018-11-28T19:31:10.149Z,20.80
2018-11-28T19:34:18.162Z,22.30
2018-11-28T19:35:44.877Z,20.60
2018-11-28T19:37:16.453Z,22.30
2018-11-28T19:38:48.030Z,21.70
2018-11-28T19:40:19.809Z,23.30
2018-11-28T19:41:51.184Z,21.70
2018-11-28T19:44:54.346Z,21.60
2018-11-28T19:46:26.013Z,20.90
2018-11-28T19:47:57.488Z,21.70
2018-11-28T19:49:29.068Z,22.80
2018-11-28T19:52:32.218Z,20.50
2018-11-28T19:54:03.794Z,17.70
2018-11-28T19:55:35.382Z,20.00
2018-11-28T19:57:07.152Z,16.10
2018-11-28T19:58:38.523Z,16.40
2018-11-28T20:00:10.097Z,16.70
2018-11-28T20:01:41.675Z,16.10
2018-11-28T20:03:13.554Z,19.10
2018-11-28T20:04:44.926Z,18.00
2018-11-28T20:06:16.929Z,16.60
2018-11-28T20:07:47.979Z,18.90
2018-11-28T20:09:19.556Z,19.30
2018-11-28T20:10:51.129Z,18.90
2018-11-28T20:13:54.282Z,18.00
2018-11-28T20:15:25.855Z,16.30
2018-11-28T20:16:57.430Z,15.40
2018-11-28T20:20:00.787Z,13.10
2018-11-28T20:21:32.157Z,14.10
2018-11-28T20:23:03.832Z,13.20
2018-11-28T20:24:35.515Z,10.30
2018-11-28T20:26:06.909Z,10.10
2018-11-28T20:27:38.458Z,10.90
2018-11-28T20:29:10.033Z,9.90
2018-11-28T20:30:41.617Z,11.60
2018-11-28T20:32:13.183Z,9.10
2018-11-28T20:33:44.762Z,7.90
2018-11-28T20:35:16.336Z,8.60
2018-11-28T20:36:47.910Z,9.30
2018-11-28T20:38:19.671Z,7.70
2018-11-28T20:39:51.060Z,7.40
2018-11-28T20:41:22.736Z,8.00
2018-11-28T20:42:54.210Z,8.70
2018-11-28T20:44:25.784Z,7.20
2018-11-28T20:45:57.358Z,7.30